Terminal Aerodrome Forecast
Issued by NWS Green Bay, WI

Home | Current Version | Previous Version | Graphics & Text | Print | Product List | Glossary On
Versions: 1 2 3 4 5 6 7 8 9 10 11 12 13 14 15 16 17 18
000
FTUS43 KGRB 230520
TAFGRB
TAF
KGRB 230520Z 2306/2406 VRB03KT P6SM SCT250
      TEMPO 2307/2311 4SM BR
     FM231400 08006KT P6SM SCT250
     FM231900 12008G13KT P6SM SCT040 BKN200
     FM240000 17006KT P6SM SCT045 BKN100 PROB30 2400/2403 4SM -TSRA
      BR BKN035CB
     FM240300 18007KT 4SM -TSRA BR BKN030CB=

USA.gov is the U.S. government's official web portal to all federal, state and local government web resources and services.